createdAt,value
2023-11-25T00:02:11.351Z,3.72
2023-11-25T00:04:39.608Z,3.78
2023-11-25T00:07:08.681Z,3.71
2023-11-25T00:09:36.485Z,3.69
2023-11-25T00:12:04.533Z,3.75
2023-11-25T00:14:32.358Z,3.75
2023-11-25T00:17:00.209Z,3.74
2023-11-25T00:19:29.909Z,3.77
2023-11-25T00:21:57.739Z,3.74
2023-11-25T00:24:25.701Z,3.68
2023-11-25T00:26:53.521Z,3.64
2023-11-25T00:29:21.453Z,3.71
2023-11-25T00:31:50.408Z,3.74
2023-11-25T00:34:18.402Z,3.71
2023-11-25T00:36:48.073Z,3.77
2023-11-25T00:39:16.485Z,3.72
2023-11-25T00:41:44.526Z,3.76
2023-11-25T00:44:12.752Z,3.83
2023-11-25T00:46:40.699Z,3.78
2023-11-25T00:49:09.873Z,3.81
2023-11-25T00:51:39.036Z,3.86
2023-11-25T00:54:09.259Z,3.80
2023-11-25T00:56:37.267Z,3.81
2023-11-25T00:59:05.152Z,3.85
2023-11-25T01:01:34.415Z,3.86
2023-11-25T01:04:03.150Z,3.86
2023-11-25T01:06:31.077Z,3.86
2023-11-25T01:08:59.018Z,3.82
2023-11-25T01:11:28.687Z,3.83
2023-11-25T01:13:56.747Z,3.75
2023-11-25T01:16:26.098Z,3.71
2023-11-25T01:18:54.048Z,3.69
2023-11-25T01:21:21.840Z,3.64
2023-11-25T01:23:49.666Z,3.62
2023-11-25T01:26:17.456Z,3.59
2023-11-25T01:28:46.844Z,3.57
2023-11-25T01:31:15.509Z,3.54
2023-11-25T01:33:43.510Z,3.55
2023-11-25T01:36:11.446Z,3.51
2023-11-25T01:38:39.276Z,3.48
2023-11-25T01:41:07.831Z,3.45
2023-11-25T01:43:35.682Z,3.37
2023-11-25T01:46:08.077Z,3.31
2023-11-25T01:48:37.120Z,3.28
2023-11-25T01:51:08.434Z,3.29
2023-11-25T01:53:37.512Z,3.29
2023-11-25T01:56:05.749Z,3.25
2023-11-25T01:58:34.278Z,3.23
2023-11-25T02:01:02.371Z,3.19
2023-11-25T02:03:32.632Z,3.12
2023-11-25T02:06:00.498Z,3.06
2023-11-25T02:08:28.421Z,3.02
2023-11-25T02:10:56.151Z,2.99
2023-11-25T02:13:26.489Z,2.95
2023-11-25T02:15:56.958Z,2.83
2023-11-25T02:18:25.994Z,2.85
2023-11-25T02:20:55.664Z,2.72
2023-11-25T02:23:25.057Z,2.71
2023-11-25T02:25:54.058Z,2.65
2023-11-25T02:28:22.595Z,2.64
2023-11-25T02:30:50.757Z,2.62
2023-11-25T02:33:18.799Z,2.58
2023-11-25T02:35:48.716Z,2.56
2023-11-25T02:38:16.906Z,2.56
2023-11-25T02:40:47.377Z,2.59
2023-11-25T02:43:18.166Z,2.53
2023-11-25T02:45:46.824Z,2.48
2023-11-25T02:48:17.169Z,2.43
2023-11-25T02:50:45.425Z,2.51
2023-11-25T02:53:13.474Z,2.49
2023-11-25T02:55:41.198Z,2.54
2023-11-25T02:58:10.385Z,2.47
2023-11-25T03:00:41.369Z,2.53
2023-11-25T03:03:18.104Z,2.51
2023-11-25T03:05:48.859Z,2.52
2023-11-25T03:08:18.196Z,2.60
2023-11-25T03:10:47.446Z,2.64
2023-11-25T03:13:17.620Z,2.59
2023-11-25T03:15:45.622Z,2.57
2023-11-25T03:18:13.830Z,2.57
2023-11-25T03:20:41.917Z,2.55
2023-11-25T03:23:09.820Z,2.53
2023-11-25T03:25:38.999Z,2.47
2023-11-25T03:28:09.959Z,2.49
2023-11-25T03:30:39.238Z,2.46
2023-11-25T03:33:07.105Z,2.34
2023-11-25T03:35:36.548Z,2.41
2023-11-25T03:38:04.347Z,2.38
2023-11-25T03:40:32.880Z,2.34
2023-11-25T03:43:00.775Z,2.35
2023-11-25T03:45:28.555Z,2.36
2023-11-25T03:47:57.787Z,2.36
2023-11-25T03:50:25.817Z,2.42
2023-11-25T03:52:53.633Z,2.42
2023-11-25T03:55:21.702Z,2.34
2023-11-25T03:57:49.625Z,2.44
2023-11-25T04:00:18.838Z,2.43
2023-11-25T04:02:48.816Z,2.30
2023-11-25T04:05:18.504Z,2.26
2023-11-25T04:07:46.319Z,2.19
2023-11-25T04:10:15.246Z,2.18
2023-11-25T04:12:44.080Z,2.12
2023-11-25T04:15:13.591Z,2.14
2023-11-25T04:17:44.365Z,2.18
2023-11-25T04:20:15.504Z,2.21
2023-11-25T04:22:46.006Z,2.17
2023-11-25T04:25:15.033Z,2.15
2023-11-25T04:27:43.804Z,2.15
2023-11-25T04:30:12.865Z,2.17
2023-11-25T04:32:42.254Z,2.15
2023-11-25T04:35:10.622Z,2.15
2023-11-25T04:37:39.325Z,2.16
2023-11-25T04:40:12.930Z,2.27
2023-11-25T04:42:41.643Z,2.36
2023-11-25T04:45:16.667Z,2.34
2023-11-25T04:47:46.421Z,2.38
2023-11-25T04:50:15.257Z,2.46
2023-11-25T04:52:43.789Z,2.52
2023-11-25T04:55:14.763Z,2.52
2023-11-25T04:57:43.459Z,2.57
2023-11-25T05:00:14.465Z,2.64
2023-11-25T05:02:44.129Z,2.64
2023-11-25T05:05:13.593Z,2.71
2023-11-25T05:07:42.384Z,2.66
2023-11-25T05:10:12.716Z,2.71
2023-11-25T05:12:42.639Z,2.74
2023-11-25T05:15:11.450Z,2.78
2023-11-25T05:17:41.951Z,2.83
2023-11-25T05:20:16.836Z,2.86
2023-11-25T05:22:45.161Z,2.86
2023-11-25T05:25:16.457Z,2.88
2023-11-25T05:27:45.305Z,2.85
2023-11-25T05:30:15.303Z,2.89
2023-11-25T05:32:44.176Z,2.90
2023-11-25T05:35:14.710Z,2.84
2023-11-25T05:37:45.317Z,2.86
2023-11-25T05:40:17.416Z,2.87
2023-11-25T05:42:49.980Z,2.86
2023-11-25T05:45:19.583Z,2.91
2023-11-25T05:47:48.073Z,2.90
2023-11-25T05:50:21.842Z,2.89
2023-11-25T05:52:50.178Z,2.86
2023-11-25T05:55:20.709Z,2.88
2023-11-25T05:57:51.560Z,2.84
2023-11-25T06:00:20.599Z,2.86
2023-11-25T06:02:48.308Z,2.86
2023-11-25T06:05:18.980Z,2.84
2023-11-25T06:07:47.077Z,2.80
2023-11-25T06:10:15.297Z,2.80
2023-11-25T06:12:44.427Z,2.75
2023-11-25T06:15:12.693Z,2.75
2023-11-25T06:17:43.157Z,2.71
2023-11-25T06:20:12.235Z,2.67
2023-11-25T06:22:41.671Z,2.67
2023-11-25T06:25:10.413Z,2.55
2023-11-25T06:27:41.843Z,2.57
2023-11-25T06:30:13.337Z,2.55
2023-11-25T06:32:41.149Z,2.59
2023-11-25T06:35:10.817Z,2.52
2023-11-25T06:37:40.919Z,2.54
2023-11-25T06:40:13.728Z,2.54
2023-11-25T06:42:42.035Z,2.50
2023-11-25T06:45:15.142Z,2.46
2023-11-25T06:47:43.863Z,2.42
2023-11-25T06:50:12.830Z,2.46
2023-11-25T06:52:40.698Z,2.46
2023-11-25T06:55:10.890Z,2.48
2023-11-25T06:57:40.233Z,2.49
2023-11-25T07:00:10.102Z,2.51
2023-11-25T07:02:41.003Z,2.53
2023-11-25T07:05:09.995Z,2.49
2023-11-25T07:07:38.845Z,2.51
2023-11-25T07:10:10.910Z,2.53
2023-11-25T07:12:39.366Z,2.56
2023-11-25T07:15:09.165Z,2.55
2023-11-25T07:17:37.774Z,2.52
2023-11-25T07:20:13.476Z,2.46
2023-11-25T07:22:42.569Z,2.45
2023-11-25T07:25:13.261Z,2.48
2023-11-25T07:27:42.165Z,2.51
2023-11-25T07:30:11.205Z,2.49
2023-11-25T07:32:39.328Z,2.54
2023-11-25T07:35:10.259Z,2.59
2023-11-25T07:37:38.188Z,2.64
2023-11-25T07:40:10.460Z,2.69
2023-11-25T07:42:39.464Z,2.73
2023-11-25T07:45:11.319Z,2.88
2023-11-25T07:47:39.581Z,2.90
2023-11-25T07:50:10.120Z,3.01
2023-11-25T07:52:38.164Z,3.12
2023-11-25T07:55:06.718Z,3.21
2023-11-25T07:57:34.730Z,3.28
2023-11-25T08:00:02.708Z,3.35
2023-11-25T08:02:30.643Z,3.47
2023-11-25T08:04:58.550Z,3.54
2023-11-25T08:07:28.187Z,3.62
2023-11-25T08:09:56.052Z,3.63
2023-11-25T08:12:23.804Z,3.68
2023-11-25T08:14:51.526Z,3.73
2023-11-25T08:17:19.341Z,3.79
2023-11-25T08:19:49.711Z,3.81
2023-11-25T08:22:17.929Z,3.80
2023-11-25T08:24:49.656Z,3.82
2023-11-25T08:27:17.561Z,3.90
2023-11-25T08:29:45.746Z,4.01
2023-11-25T08:32:14.319Z,4.05
2023-11-25T08:34:42.183Z,4.12
2023-11-25T08:37:09.942Z,4.16
2023-11-25T08:39:37.881Z,4.15
2023-11-25T08:42:10.350Z,4.15
2023-11-25T08:44:38.381Z,4.18
2023-11-25T08:47:06.572Z,4.10
2023-11-25T08:49:35.072Z,4.19
2023-11-25T08:52:03.877Z,4.25
2023-11-25T08:54:37.786Z,4.25
2023-11-25T08:57:08.895Z,4.27
2023-11-25T08:59:37.317Z,4.32
2023-11-25T09:02:06.765Z,4.36
2023-11-25T09:04:37.837Z,4.33
2023-11-25T09:07:08.868Z,4.30
2023-11-25T09:09:36.928Z,4.30
2023-11-25T09:12:05.302Z,4.29
2023-11-25T09:14:34.478Z,4.26
2023-11-25T09:17:02.314Z,4.29
2023-11-25T09:19:30.231Z,4.29
2023-11-25T09:21:58.134Z,4.33
2023-11-25T09:24:26.014Z,4.40
2023-11-25T09:26:55.793Z,4.36
2023-11-25T09:29:23.680Z,4.32
2023-11-25T09:31:53.910Z,4.37
2023-11-25T09:34:21.861Z,4.37
2023-11-25T09:36:50.648Z,4.41
2023-11-25T09:39:19.328Z,4.38
2023-11-25T09:41:49.425Z,4.49
2023-11-25T09:44:17.578Z,4.52
2023-11-25T09:46:45.629Z,4.55
2023-11-25T09:49:14.931Z,4.65
2023-11-25T09:51:47.689Z,4.59
2023-11-25T09:54:22.666Z,4.54
2023-11-25T09:56:52.259Z,4.59
2023-11-25T09:59:20.889Z,4.55
2023-11-25T10:01:50.001Z,4.60
2023-11-25T10:04:20.630Z,4.54
2023-11-25T10:06:50.159Z,4.59
2023-11-25T10:09:17.888Z,4.59
2023-11-25T10:11:45.591Z,4.63
2023-11-25T10:14:18.631Z,4.63
2023-11-25T10:16:47.872Z,4.65
2023-11-25T10:19:22.739Z,4.65
2023-11-25T10:21:52.769Z,4.72
2023-11-25T10:24:22.338Z,4.79
2023-11-25T10:26:52.266Z,4.73
2023-11-25T10:29:21.463Z,4.68
2023-11-25T10:31:58.127Z,4.69
2023-11-25T10:34:28.107Z,4.76
2023-11-25T10:36:56.134Z,4.88
2023-11-25T10:39:25.469Z,4.98
2023-11-25T10:41:53.642Z,5.01
2023-11-25T10:44:21.977Z,5.14
2023-11-25T10:46:49.855Z,5.16
2023-11-25T10:49:19.703Z,5.22
2023-11-25T10:51:50.878Z,5.26
2023-11-25T10:54:20.102Z,5.21
2023-11-25T10:56:48.782Z,5.32
2023-11-25T10:59:20.715Z,5.33
2023-11-25T11:01:51.738Z,5.35
2023-11-25T11:04:29.067Z,5.34
2023-11-25T11:07:05.722Z,5.42
2023-11-25T11:09:36.777Z,5.43
2023-11-25T11:12:09.950Z,5.48
2023-11-25T11:14:45.933Z,5.47
2023-11-25T11:17:25.547Z,5.48
2023-11-25T11:19:57.068Z,5.35
2023-11-25T11:22:28.177Z,5.49
2023-11-25T11:25:10.441Z,5.45
2023-11-25T11:27:44.326Z,5.39
2023-11-25T11:30:17.749Z,5.47
2023-11-25T11:32:46.617Z,5.43
2023-11-25T11:35:14.762Z,5.41
2023-11-25T11:37:52.640Z,5.42
2023-11-25T11:40:23.510Z,5.35
2023-11-25T11:42:51.560Z,5.35
2023-11-25T11:45:25.284Z,5.46
2023-11-25T11:47:54.428Z,5.48
2023-11-25T11:50:24.356Z,5.51
2023-11-25T11:53:15.452Z,5.57
2023-11-25T11:55:53.349Z,5.68
2023-11-25T11:58:24.505Z,5.72
2023-11-25T12:00:56.628Z,5.70
2023-11-25T12:03:24.782Z,5.85
2023-11-25T12:05:53.671Z,5.86
2023-11-25T12:08:23.579Z,5.81
2023-11-25T12:10:52.600Z,5.87
2023-11-25T12:13:27.275Z,5.87
2023-11-25T12:15:55.484Z,5.82
2023-11-25T12:18:23.263Z,5.81
2023-11-25T12:20:51.093Z,5.87
2023-11-25T12:23:19.291Z,5.91
2023-11-25T12:25:48.698Z,5.92
2023-11-25T12:28:16.620Z,5.97
2023-11-25T12:30:44.685Z,6.05
2023-11-25T12:33:12.692Z,6.11
2023-11-25T12:35:44.663Z,6.11
2023-11-25T12:38:16.061Z,6.16
2023-11-25T12:40:46.654Z,6.20
2023-11-25T12:43:17.365Z,6.17
2023-11-25T12:45:47.980Z,6.14
2023-11-25T12:48:22.653Z,6.15
2023-11-25T12:51:01.428Z,6.21
2023-11-25T12:53:29.542Z,6.17
2023-11-25T12:55:58.812Z,6.22
2023-11-25T12:58:28.532Z,6.28
2023-11-25T13:00:58.180Z,6.26
2023-11-25T13:03:28.204Z,6.35
2023-11-25T13:06:00.562Z,6.37
2023-11-25T13:08:30.312Z,6.40
2023-11-25T13:10:59.286Z,6.38
2023-11-25T13:13:30.593Z,6.43
2023-11-25T13:15:59.151Z,6.44
2023-11-25T13:18:28.725Z,6.35
2023-11-25T13:20:57.691Z,6.34
2023-11-25T13:23:25.721Z,6.34
2023-11-25T13:25:53.776Z,6.31
2023-11-25T13:28:21.811Z,6.29
2023-11-25T13:30:52.142Z,6.28
2023-11-25T13:33:20.342Z,6.35
2023-11-25T13:35:48.833Z,6.30
2023-11-25T13:38:17.656Z,6.22
2023-11-25T13:40:45.848Z,6.27
2023-11-25T13:43:15.443Z,6.25
2023-11-25T13:45:45.293Z,6.22
2023-11-25T13:48:18.764Z,6.21
2023-11-25T13:50:46.702Z,6.18
2023-11-25T13:53:14.996Z,6.28
2023-11-25T13:55:45.852Z,6.22
2023-11-25T13:58:14.121Z,6.22
2023-11-25T14:00:42.212Z,6.30
2023-11-25T14:03:11.593Z,6.25
2023-11-25T14:05:43.880Z,6.26
2023-11-25T14:08:13.256Z,6.22
2023-11-25T14:10:44.294Z,6.15
2023-11-25T14:13:13.105Z,6.18
2023-11-25T14:15:42.341Z,6.22
2023-11-25T14:18:11.922Z,6.19
2023-11-25T14:20:41.577Z,6.20
2023-11-25T14:23:11.445Z,6.29
2023-11-25T14:25:39.693Z,6.37
2023-11-25T14:28:09.971Z,6.42
2023-11-25T14:30:38.271Z,6.42
2023-11-25T14:33:06.809Z,6.39
2023-11-25T14:35:34.883Z,6.44
2023-11-25T14:38:05.752Z,6.48
2023-11-25T14:40:37.551Z,6.52
2023-11-25T14:43:06.702Z,6.53
2023-11-25T14:45:34.585Z,6.54
2023-11-25T14:48:02.412Z,6.54
2023-11-25T14:50:30.715Z,6.51
2023-11-25T14:53:00.610Z,6.49
2023-11-25T14:55:29.880Z,6.42
2023-11-25T14:57:58.400Z,6.40
2023-11-25T15:00:29.760Z,6.42
2023-11-25T15:02:57.904Z,6.42
2023-11-25T15:05:25.944Z,6.47
2023-11-25T15:07:53.999Z,6.52
2023-11-25T15:10:26.234Z,6.56
2023-11-25T15:12:56.922Z,6.54
2023-11-25T15:15:25.607Z,6.54
2023-11-25T15:17:53.550Z,6.53
2023-11-25T15:20:23.559Z,6.51
2023-11-25T15:22:52.468Z,6.54
2023-11-25T15:25:20.384Z,6.51
2023-11-25T15:27:48.574Z,6.45
2023-11-25T15:30:19.219Z,6.47
2023-11-25T15:32:47.127Z,6.44
2023-11-25T15:35:15.161Z,6.38
2023-11-25T15:37:43.989Z,6.38
2023-11-25T15:40:14.318Z,6.33
2023-11-25T15:42:42.172Z,6.35
2023-11-25T15:45:10.947Z,6.38
2023-11-25T15:47:41.602Z,6.38
2023-11-25T15:50:13.065Z,6.27
2023-11-25T15:52:42.256Z,6.28
2023-11-25T15:55:12.117Z,6.30
2023-11-25T15:57:39.969Z,6.25
2023-11-25T16:00:15.747Z,6.23
2023-11-25T16:02:46.295Z,6.18
2023-11-25T16:05:15.905Z,6.20
2023-11-25T16:07:44.700Z,6.22
2023-11-25T16:10:13.336Z,6.21
2023-11-25T16:12:41.350Z,6.22
2023-11-25T16:15:11.341Z,6.24
2023-11-25T16:17:39.970Z,6.25
2023-11-25T16:20:10.907Z,6.25
2023-11-25T16:22:38.840Z,6.18
2023-11-25T16:25:07.839Z,6.13
2023-11-25T16:27:35.596Z,6.13
2023-11-25T16:30:04.200Z,6.01
2023-11-25T16:32:32.014Z,5.97
2023-11-25T16:35:00.419Z,6.05
2023-11-25T16:37:29.777Z,6.02
2023-11-25T16:39:59.077Z,6.02
2023-11-25T16:42:26.945Z,5.96
2023-11-25T16:44:56.282Z,6.03
2023-11-25T16:47:24.961Z,5.96
2023-11-25T16:49:52.761Z,5.98
2023-11-25T16:52:20.556Z,5.89
2023-11-25T16:54:50.797Z,5.88
2023-11-25T16:57:18.715Z,5.88
2023-11-25T16:59:46.454Z,5.86
2023-11-25T17:02:14.395Z,5.85
2023-11-25T17:04:43.288Z,5.87
2023-11-25T17:07:13.797Z,5.91
2023-11-25T17:09:43.380Z,5.92
2023-11-25T17:12:12.797Z,5.91
2023-11-25T17:14:40.805Z,5.84
2023-11-25T17:17:10.453Z,5.89
2023-11-25T17:19:38.273Z,5.86
2023-11-25T17:22:06.449Z,5.89
2023-11-25T17:24:36.081Z,5.93
2023-11-25T17:27:05.118Z,5.86
2023-11-25T17:29:35.498Z,5.83
2023-11-25T17:32:05.189Z,5.89
2023-11-25T17:34:33.182Z,5.89
2023-11-25T17:37:01.565Z,5.90
2023-11-25T17:39:29.839Z,5.89
2023-11-25T17:41:57.802Z,5.87
2023-11-25T17:44:25.640Z,5.88
2023-11-25T17:46:54.863Z,5.89
2023-11-25T17:49:23.010Z,5.86
2023-11-25T17:51:50.770Z,5.82
2023-11-25T17:54:19.182Z,5.85
2023-11-25T17:56:47.040Z,5.89
2023-11-25T17:59:14.942Z,5.87
2023-11-25T18:01:42.957Z,5.85
2023-11-25T18:04:13.918Z,5.82
2023-11-25T18:06:41.965Z,5.79
2023-11-25T18:09:10.981Z,5.75
2023-11-25T18:11:39.822Z,5.68
2023-11-25T18:14:07.747Z,5.70
2023-11-25T18:16:35.614Z,5.70
2023-11-25T18:19:03.811Z,5.71
2023-11-25T18:21:33.071Z,5.70
2023-11-25T18:24:00.776Z,5.70
2023-11-25T18:26:28.487Z,5.71
2023-11-25T18:28:56.415Z,5.70
2023-11-25T18:31:24.417Z,5.67
2023-11-25T18:33:52.324Z,5.71
2023-11-25T18:36:20.068Z,5.67
2023-11-25T18:38:49.310Z,5.71
2023-11-25T18:41:18.378Z,5.72
2023-11-25T18:43:46.363Z,5.68
2023-11-25T18:46:14.356Z,5.68
2023-11-25T18:48:42.139Z,5.72
2023-11-25T18:51:09.972Z,5.74
2023-11-25T18:53:38.135Z,5.72
2023-11-25T18:56:08.056Z,5.64
2023-11-25T18:58:35.834Z,5.66
2023-11-25T19:01:06.225Z,5.65
2023-11-25T19:03:34.061Z,5.65
2023-11-25T19:06:01.893Z,5.67
2023-11-25T19:08:29.677Z,5.69
2023-11-25T19:10:58.514Z,5.74
2023-11-25T19:13:27.728Z,5.75
2023-11-25T19:15:55.491Z,5.82
2023-11-25T19:18:23.293Z,5.81
2023-11-25T19:20:51.066Z,5.82
2023-11-25T19:23:19.056Z,5.83
2023-11-25T19:25:47.005Z,5.85
2023-11-25T19:28:14.777Z,5.87
2023-11-25T19:30:44.270Z,5.82
2023-11-25T19:33:13.308Z,5.85
2023-11-25T19:35:41.235Z,5.92
2023-11-25T19:38:11.557Z,5.94
2023-11-25T19:40:40.272Z,5.97
2023-11-25T19:43:09.658Z,5.93
2023-11-25T19:45:37.520Z,5.89
2023-11-25T19:48:08.325Z,5.90
2023-11-25T19:50:37.657Z,5.89
2023-11-25T19:53:05.729Z,5.92
2023-11-25T19:55:33.816Z,5.93
2023-11-25T19:58:01.619Z,5.91
2023-11-25T20:00:29.924Z,5.95
2023-11-25T20:02:57.943Z,5.94
2023-11-25T20:05:27.281Z,5.96
2023-11-25T20:07:55.303Z,5.96
2023-11-25T20:10:23.191Z,5.98
2023-11-25T20:12:50.905Z,6.04
2023-11-25T20:15:19.467Z,6.01
2023-11-25T20:17:47.546Z,6.11
2023-11-25T20:20:16.445Z,6.10
2023-11-25T20:22:45.838Z,6.05
2023-11-25T20:25:15.307Z,6.04
2023-11-25T20:27:43.542Z,6.01
2023-11-25T20:30:12.709Z,6.06
2023-11-25T20:32:40.598Z,6.13
2023-11-25T20:35:09.614Z,6.13
2023-11-25T20:37:39.970Z,6.08
2023-11-25T20:40:10.445Z,6.09
2023-11-25T20:42:38.325Z,6.14
2023-11-25T20:45:07.188Z,6.15
2023-11-25T20:47:34.934Z,6.09
2023-11-25T20:50:02.657Z,5.97
2023-11-25T20:52:30.441Z,5.86
2023-11-25T20:54:58.178Z,5.78
2023-11-25T20:57:27.256Z,5.72
2023-11-25T20:59:55.245Z,5.76
2023-11-25T21:02:23.211Z,5.77
2023-11-25T21:04:51.221Z,5.76
2023-11-25T21:07:19.012Z,5.72
2023-11-25T21:09:46.915Z,5.75
2023-11-25T21:12:17.801Z,5.72
2023-11-25T21:14:47.251Z,5.73
2023-11-25T21:17:15.768Z,5.72
2023-11-25T21:19:43.689Z,5.75
2023-11-25T21:22:11.502Z,5.71
2023-11-25T21:24:39.312Z,5.69
2023-11-25T21:27:07.727Z,5.69
2023-11-25T21:29:35.483Z,5.65
2023-11-25T21:32:09.311Z,5.57
2023-11-25T21:34:37.818Z,5.58
2023-11-25T21:37:05.995Z,5.45
2023-11-25T21:39:34.362Z,5.44
2023-11-25T21:42:02.526Z,5.40
2023-11-25T21:44:30.596Z,5.42
2023-11-25T21:46:58.908Z,5.29
2023-11-25T21:49:28.235Z,5.28
2023-11-25T21:51:55.918Z,5.25
2023-11-25T21:54:23.722Z,5.18
2023-11-25T21:56:52.743Z,5.07
2023-11-25T21:59:20.761Z,4.92
2023-11-25T22:01:48.779Z,4.78
2023-11-25T22:04:16.738Z,4.68
2023-11-25T22:06:45.957Z,4.66
2023-11-25T22:09:15.948Z,4.57
2023-11-25T22:11:44.554Z,4.49
2023-11-25T22:14:12.930Z,4.49
2023-11-25T22:16:40.877Z,4.43
2023-11-25T22:19:08.746Z,4.37
2023-11-25T22:21:36.613Z,4.42
2023-11-25T22:24:06.862Z,4.43
2023-11-25T22:26:46.240Z,4.34
2023-11-25T22:29:15.385Z,4.24
2023-11-25T22:31:43.291Z,4.23
2023-11-25T22:34:12.355Z,4.25
2023-11-25T22:36:40.283Z,4.24
2023-11-25T22:39:09.489Z,4.11
2023-11-25T22:41:40.893Z,4.10
2023-11-25T22:44:08.749Z,4.04
2023-11-25T22:46:39.790Z,3.96
2023-11-25T22:49:08.792Z,3.88
2023-11-25T22:51:38.421Z,3.89
2023-11-25T22:54:06.345Z,3.85
2023-11-25T22:56:35.495Z,3.89
2023-11-25T22:59:04.773Z,3.86
2023-11-25T23:01:34.178Z,3.82
2023-11-25T23:04:03.485Z,3.78
2023-11-25T23:06:36.209Z,3.85
2023-11-25T23:09:05.559Z,3.94
2023-11-25T23:11:35.753Z,3.94
2023-11-25T23:14:05.352Z,3.98
2023-11-25T23:16:33.858Z,3.99
2023-11-25T23:19:01.924Z,4.01
2023-11-25T23:21:29.659Z,3.94
2023-11-25T23:23:57.614Z,3.92
2023-11-25T23:26:25.558Z,3.81
2023-11-25T23:28:54.765Z,3.64
2023-11-25T23:31:22.630Z,3.64
2023-11-25T23:33:50.525Z,3.56
2023-11-25T23:36:18.228Z,3.48
2023-11-25T23:38:46.554Z,3.38
2023-11-25T23:41:14.372Z,3.43
2023-11-25T23:43:42.185Z,3.39
2023-11-25T23:46:11.442Z,3.35
2023-11-25T23:48:39.202Z,3.37
2023-11-25T23:51:07.714Z,3.38
2023-11-25T23:53:35.569Z,3.42
2023-11-25T23:56:03.655Z,3.37
2023-11-25T23:58:33.375Z,3.22
